sensor_id;sensor_type;location;lat;lon;timestamp;temperature;humidity
2174;DHT22;1093;51.424;11.764;2024-03-22T00:02:06;6.80;1.40
2174;DHT22;1093;51.424;11.764;2024-03-22T00:04:32;6.70;1.40
2174;DHT22;1093;51.424;11.764;2024-03-22T00:06:59;6.70;1.40
2174;DHT22;1093;51.424;11.764;2024-03-22T00:09:25;6.60;1.40
2174;DHT22;1093;51.424;11.764;2024-03-22T00:11:51;6.60;1.40
2174;DHT22;1093;51.424;11.764;2024-03-22T00:14:17;6.60;1.40
2174;DHT22;1093;51.424;11.764;2024-03-22T00:16:45;6.60;1.40
2174;DHT22;1093;51.424;11.764;2024-03-22T00:19:11;6.50;1.40
2174;DHT22;1093;51.424;11.764;2024-03-22T00:21:37;6.50;1.40
2174;DHT22;1093;51.424;11.764;2024-03-22T00:24:03;6.60;1.40
2174;DHT22;1093;51.424;11.764;2024-03-22T00:26:31;6.50;1.40
2174;DHT22;1093;51.424;11.764;2024-03-22T00:28:56;6.50;1.40
2174;DHT22;1093;51.424;11.764;2024-03-22T00:31:24;6.50;1.40
2174;DHT22;1093;51.424;11.764;2024-03-22T00:33:51;6.50;1.40
2174;DHT22;1093;51.424;11.764;2024-03-22T00:36:18;6.50;1.40
2174;DHT22;1093;51.424;11.764;2024-03-22T00:38:43;6.40;1.40
2174;DHT22;1093;51.424;11.764;2024-03-22T00:41:10;6.40;1.40
2174;DHT22;1093;51.424;11.764;2024-03-22T00:43:36;6.40;1.40
2174;DHT22;1093;51.424;11.764;2024-03-22T00:46:03;6.40;1.40
2174;DHT22;1093;51.424;11.764;2024-03-22T00:48:29;6.40;1.40
2174;DHT22;1093;51.424;11.764;2024-03-22T00:50:57;6.40;1.40
2174;DHT22;1093;51.424;11.764;2024-03-22T00:53:23;6.40;1.40
2174;DHT22;1093;51.424;11.764;2024-03-22T00:55:50;6.40;1.40
2174;DHT22;1093;51.424;11.764;2024-03-22T00:58:17;6.40;1.40
2174;DHT22;1093;51.424;11.764;2024-03-22T01:00:44;6.30;1.40
2174;DHT22;1093;51.424;11.764;2024-03-22T01:03:10;6.30;1.40
2174;DHT22;1093;51.424;11.764;2024-03-22T01:05:37;6.30;1.40
2174;DHT22;1093;51.424;11.764;2024-03-22T01:08:05;6.30;1.40
2174;DHT22;1093;51.424;11.764;2024-03-22T01:10:33;6.30;1.40
2174;DHT22;1093;51.424;11.764;2024-03-22T01:12:58;6.30;1.40
2174;DHT22;1093;51.424;11.764;2024-03-22T01:15:25;6.20;1.40
2174;DHT22;1093;51.424;11.764;2024-03-22T01:17:52;6.20;1.40
2174;DHT22;1093;51.424;11.764;2024-03-22T01:20:19;6.20;1.40
2174;DHT22;1093;51.424;11.764;2024-03-22T01:22:44;6.20;1.40
2174;DHT22;1093;51.424;11.764;2024-03-22T01:25:12;6.20;1.40
2174;DHT22;1093;51.424;11.764;2024-03-22T01:27:38;6.20;1.40
2174;DHT22;1093;51.424;11.764;2024-03-22T01:30:06;6.20;1.40
2174;DHT22;1093;51.424;11.764;2024-03-22T01:32:32;6.20;1.40
2174;DHT22;1093;51.424;11.764;2024-03-22T01:34:58;6.20;1.40
2174;DHT22;1093;51.424;11.764;2024-03-22T01:37:24;6.20;1.40
2174;DHT22;1093;51.424;11.764;2024-03-22T01:39:51;6.20;1.40
2174;DHT22;1093;51.424;11.764;2024-03-22T01:42:18;6.20;1.40
2174;DHT22;1093;51.424;11.764;2024-03-22T01:44:44;6.20;1.40
2174;DHT22;1093;51.424;11.764;2024-03-22T01:47:10;6.20;1.40
2174;DHT22;1093;51.424;11.764;2024-03-22T01:49:38;6.20;1.40
2174;DHT22;1093;51.424;11.764;2024-03-22T01:52:04;6.20;1.40
2174;DHT22;1093;51.424;11.764;2024-03-22T01:54:31;6.20;1.40
2174;DHT22;1093;51.424;11.764;2024-03-22T01:56:57;6.10;1.40
2174;DHT22;1093;51.424;11.764;2024-03-22T01:59:26;6.10;1.40
2174;DHT22;1093;51.424;11.764;2024-03-22T02:01:51;6.10;1.40
2174;DHT22;1093;51.424;11.764;2024-03-22T02:04:18;6.10;1.40
2174;DHT22;1093;51.424;11.764;2024-03-22T02:06:44;6.10;1.40
2174;DHT22;1093;51.424;11.764;2024-03-22T02:09:11;6.10;1.40
2174;DHT22;1093;51.424;11.764;2024-03-22T02:11:37;6.10;1.40
2174;DHT22;1093;51.424;11.764;2024-03-22T02:14:05;6.10;1.40
2174;DHT22;1093;51.424;11.764;2024-03-22T02:16:32;6.00;1.40
2174;DHT22;1093;51.424;11.764;2024-03-22T02:18:59;6.00;1.40
2174;DHT22;1093;51.424;11.764;2024-03-22T02:21:25;6.00;1.40
2174;DHT22;1093;51.424;11.764;2024-03-22T02:23:53;6.00;1.40
2174;DHT22;1093;51.424;11.764;2024-03-22T02:26:18;6.00;1.40
2174;DHT22;1093;51.424;11.764;2024-03-22T02:28:45;6.00;1.40
2174;DHT22;1093;51.424;11.764;2024-03-22T02:31:11;6.00;1.40
2174;DHT22;1093;51.424;11.764;2024-03-22T02:33:38;5.90;1.40
2174;DHT22;1093;51.424;11.764;2024-03-22T02:36:04;5.90;1.40
2174;DHT22;1093;51.424;11.764;2024-03-22T02:38:31;5.90;1.40
2174;DHT22;1093;51.424;11.764;2024-03-22T02:40:58;5.90;1.40
2174;DHT22;1093;51.424;11.764;2024-03-22T02:43:26;5.90;1.40
2174;DHT22;1093;51.424;11.764;2024-03-22T02:45:52;5.90;1.40
2174;DHT22;1093;51.424;11.764;2024-03-22T02:48:19;5.90;1.40
2174;DHT22;1093;51.424;11.764;2024-03-22T02:50:44;5.90;1.40
2174;DHT22;1093;51.424;11.764;2024-03-22T02:53:11;5.90;1.40
2174;DHT22;1093;51.424;11.764;2024-03-22T02:55:37;5.90;1.40
2174;DHT22;1093;51.424;11.764;2024-03-22T02:58:06;5.90;1.40
2174;DHT22;1093;51.424;11.764;2024-03-22T03:00:35;5.90;1.40
2174;DHT22;1093;51.424;11.764;2024-03-22T03:03:02;5.90;1.40
2174;DHT22;1093;51.424;11.764;2024-03-22T03:05:28;5.90;1.40
2174;DHT22;1093;51.424;11.764;2024-03-22T03:07:55;5.90;1.40
2174;DHT22;1093;51.424;11.764;2024-03-22T03:10:20;5.90;1.40
2174;DHT22;1093;51.424;11.764;2024-03-22T03:12:47;5.90;1.40
2174;DHT22;1093;51.424;11.764;2024-03-22T03:15:15;6.00;1.40
2174;DHT22;1093;51.424;11.764;2024-03-22T03:17:42;6.00;1.40
2174;DHT22;1093;51.424;11.764;2024-03-22T03:20:08;6.00;1.40
2174;DHT22;1093;51.424;11.764;2024-03-22T03:22:35;6.00;1.40
2174;DHT22;1093;51.424;11.764;2024-03-22T03:25:03;6.00;1.40
2174;DHT22;1093;51.424;11.764;2024-03-22T03:27:30;6.10;1.40
2174;DHT22;1093;51.424;11.764;2024-03-22T03:29:56;6.10;1.40
2174;DHT22;1093;51.424;11.764;2024-03-22T03:32:24;6.10;1.40
2174;DHT22;1093;51.424;11.764;2024-03-22T03:34:50;6.20;1.40
2174;DHT22;1093;51.424;11.764;2024-03-22T03:37:17;6.20;1.40
2174;DHT22;1093;51.424;11.764;2024-03-22T03:39:42;6.20;1.40
2174;DHT22;1093;51.424;11.764;2024-03-22T03:42:09;6.20;1.40
2174;DHT22;1093;51.424;11.764;2024-03-22T03:44:35;6.20;1.40
2174;DHT22;1093;51.424;11.764;2024-03-22T03:47:02;6.30;1.40
2174;DHT22;1093;51.424;11.764;2024-03-22T03:49:29;6.30;1.40
2174;DHT22;1093;51.424;11.764;2024-03-22T03:51:56;6.30;1.40
2174;DHT22;1093;51.424;11.764;2024-03-22T03:54:22;6.30;1.40
2174;DHT22;1093;51.424;11.764;2024-03-22T03:56:48;6.30;1.40
2174;DHT22;1093;51.424;11.764;2024-03-22T03:59:14;6.40;1.40
2174;DHT22;1093;51.424;11.764;2024-03-22T04:01:41;6.40;1.40
2174;DHT22;1093;51.424;11.764;2024-03-22T04:04:06;6.40;1.40
2174;DHT22;1093;51.424;11.764;2024-03-22T04:06:35;6.40;1.40
2174;DHT22;1093;51.424;11.764;2024-03-22T04:09:01;6.40;1.40
2174;DHT22;1093;51.424;11.764;2024-03-22T04:11:28;6.40;1.40
2174;DHT22;1093;51.424;11.764;2024-03-22T04:13:54;6.40;1.40
2174;DHT22;1093;51.424;11.764;2024-03-22T04:16:22;6.40;1.40
2174;DHT22;1093;51.424;11.764;2024-03-22T04:18:48;6.50;1.40
2174;DHT22;1093;51.424;11.764;2024-03-22T04:21:15;6.50;1.40
2174;DHT22;1093;51.424;11.764;2024-03-22T04:23:42;6.50;1.40
2174;DHT22;1093;51.424;11.764;2024-03-22T04:26:09;6.50;1.40
2174;DHT22;1093;51.424;11.764;2024-03-22T04:28:35;6.50;1.40
2174;DHT22;1093;51.424;11.764;2024-03-22T04:31:03;6.50;1.40
2174;DHT22;1093;51.424;11.764;2024-03-22T04:33:32;6.60;1.40
2174;DHT22;1093;51.424;11.764;2024-03-22T04:35:59;6.60;1.40
2174;DHT22;1093;51.424;11.764;2024-03-22T04:38:26;6.80;1.40
2174;DHT22;1093;51.424;11.764;2024-03-22T04:40:55;6.70;1.40
2174;DHT22;1093;51.424;11.764;2024-03-22T04:43:23;6.80;1.40
2174;DHT22;1093;51.424;11.764;2024-03-22T04:45:50;6.70;1.40
2174;DHT22;1093;51.424;11.764;2024-03-22T04:48:18;6.80;1.40
2174;DHT22;1093;51.424;11.764;2024-03-22T04:50:45;6.80;1.40
2174;DHT22;1093;51.424;11.764;2024-03-22T04:53:13;6.90;1.40
2174;DHT22;1093;51.424;11.764;2024-03-22T04:55:39;7.00;1.40
2174;DHT22;1093;51.424;11.764;2024-03-22T04:58:12;7.10;1.40
2174;DHT22;1093;51.424;11.764;2024-03-22T05:00:38;7.20;1.40
2174;DHT22;1093;51.424;11.764;2024-03-22T05:03:05;7.20;1.40
2174;DHT22;1093;51.424;11.764;2024-03-22T05:05:30;7.30;1.40
2174;DHT22;1093;51.424;11.764;2024-03-22T05:07:57;7.40;1.40
2174;DHT22;1093;51.424;11.764;2024-03-22T05:10:23;7.50;1.40
2174;DHT22;1093;51.424;11.764;2024-03-22T05:12:50;7.50;1.40
2174;DHT22;1093;51.424;11.764;2024-03-22T05:15:17;7.60;1.40
2174;DHT22;1093;51.424;11.764;2024-03-22T05:17:44;7.60;1.40
2174;DHT22;1093;51.424;11.764;2024-03-22T05:20:11;7.70;1.40
2174;DHT22;1093;51.424;11.764;2024-03-22T05:22:38;7.70;1.40
2174;DHT22;1093;51.424;11.764;2024-03-22T05:25:04;7.70;1.40
2174;DHT22;1093;51.424;11.764;2024-03-22T05:27:31;7.70;1.40
2174;DHT22;1093;51.424;11.764;2024-03-22T05:29:57;7.70;1.40
2174;DHT22;1093;51.424;11.764;2024-03-22T05:32:25;7.80;1.40
2174;DHT22;1093;51.424;11.764;2024-03-22T05:34:51;7.80;1.40
2174;DHT22;1093;51.424;11.764;2024-03-22T05:37:18;7.70;1.40
2174;DHT22;1093;51.424;11.764;2024-03-22T05:39:44;7.70;1.40
2174;DHT22;1093;51.424;11.764;2024-03-22T05:42:11;7.80;1.40
2174;DHT22;1093;51.424;11.764;2024-03-22T05:44:36;7.80;1.40
2174;DHT22;1093;51.424;11.764;2024-03-22T05:47:03;7.80;1.40
2174;DHT22;1093;51.424;11.764;2024-03-22T05:49:30;7.80;1.40
2174;DHT22;1093;51.424;11.764;2024-03-22T05:51:57;7.80;1.40
2174;DHT22;1093;51.424;11.764;2024-03-22T05:54:23;7.80;1.40
2174;DHT22;1093;51.424;11.764;2024-03-22T05:56:50;7.80;1.40
2174;DHT22;1093;51.424;11.764;2024-03-22T05:59:16;7.80;1.40
2174;DHT22;1093;51.424;11.764;2024-03-22T06:01:43;7.80;1.40
2174;DHT22;1093;51.424;11.764;2024-03-22T06:04:08;7.80;1.40
2174;DHT22;1093;51.424;11.764;2024-03-22T06:06:37;7.90;1.40
2174;DHT22;1093;51.424;11.764;2024-03-22T06:09:03;7.90;1.40
2174;DHT22;1093;51.424;11.764;2024-03-22T06:11:30;8.00;1.40
2174;DHT22;1093;51.424;11.764;2024-03-22T06:13:56;8.20;1.40
2174;DHT22;1093;51.424;11.764;2024-03-22T06:16:22;8.20;1.40
2174;DHT22;1093;51.424;11.764;2024-03-22T06:18:49;8.40;1.40
2174;DHT22;1093;51.424;11.764;2024-03-22T06:21:15;8.40;1.40
2174;DHT22;1093;51.424;11.764;2024-03-22T06:23:48;8.50;1.40
2174;DHT22;1093;51.424;11.764;2024-03-22T06:26:14;8.50;1.40
2174;DHT22;1093;51.424;11.764;2024-03-22T06:28:41;8.60;1.40
2174;DHT22;1093;51.424;11.764;2024-03-22T06:31:07;8.60;1.40
2174;DHT22;1093;51.424;11.764;2024-03-22T06:33:34;8.70;1.40
2174;DHT22;1093;51.424;11.764;2024-03-22T06:35:59;8.70;1.40
2174;DHT22;1093;51.424;11.764;2024-03-22T06:38:26;8.80;1.40
2174;DHT22;1093;51.424;11.764;2024-03-22T06:40:53;8.90;1.40
2174;DHT22;1093;51.424;11.764;2024-03-22T06:43:20;8.90;1.40
2174;DHT22;1093;51.424;11.764;2024-03-22T06:45:46;9.00;1.40
2174;DHT22;1093;51.424;11.764;2024-03-22T06:48:13;9.10;1.40
2174;DHT22;1093;51.424;11.764;2024-03-22T06:50:41;9.10;1.40
2174;DHT22;1093;51.424;11.764;2024-03-22T06:53:07;9.10;1.40
2174;DHT22;1093;51.424;11.764;2024-03-22T06:55:35;9.10;1.40
2174;DHT22;1093;51.424;11.764;2024-03-22T06:58:04;9.20;1.40
2174;DHT22;1093;51.424;11.764;2024-03-22T07:00:30;9.30;1.40
2174;DHT22;1093;51.424;11.764;2024-03-22T07:03:00;9.40;1.40
2174;DHT22;1093;51.424;11.764;2024-03-22T07:05:27;9.40;1.40
2174;DHT22;1093;51.424;11.764;2024-03-22T07:07:54;9.50;1.40
2174;DHT22;1093;51.424;11.764;2024-03-22T07:10:23;9.60;1.40
2174;DHT22;1093;51.424;11.764;2024-03-22T07:12:53;9.60;1.40
2174;DHT22;1093;51.424;11.764;2024-03-22T07:15:23;9.70;1.40
2174;DHT22;1093;51.424;11.764;2024-03-22T07:17:51;9.70;1.40
2174;DHT22;1093;51.424;11.764;2024-03-22T07:20:17;9.80;1.40
2174;DHT22;1093;51.424;11.764;2024-03-22T07:22:48;9.80;1.40
2174;DHT22;1093;51.424;11.764;2024-03-22T07:25:15;9.90;1.40
2174;DHT22;1093;51.424;11.764;2024-03-22T07:27:44;9.90;1.40
2174;DHT22;1093;51.424;11.764;2024-03-22T07:30:11;10.10;1.40
2174;DHT22;1093;51.424;11.764;2024-03-22T07:32:40;10.10;1.40
2174;DHT22;1093;51.424;11.764;2024-03-22T07:35:08;10.20;1.40
2174;DHT22;1093;51.424;11.764;2024-03-22T07:37:38;10.30;1.40
2174;DHT22;1093;51.424;11.764;2024-03-22T07:40:05;10.30;1.40
2174;DHT22;1093;51.424;11.764;2024-03-22T07:42:32;10.40;1.40
2174;DHT22;1093;51.424;11.764;2024-03-22T07:44:58;10.50;1.40
2174;DHT22;1093;51.424;11.764;2024-03-22T07:47:28;10.60;1.40
2174;DHT22;1093;51.424;11.764;2024-03-22T07:49:55;10.60;1.40
2174;DHT22;1093;51.424;11.764;2024-03-22T07:52:22;10.70;1.40
2174;DHT22;1093;51.424;11.764;2024-03-22T07:54:51;10.70;1.40
2174;DHT22;1093;51.424;11.764;2024-03-22T07:57:18;10.70;1.40
2174;DHT22;1093;51.424;11.764;2024-03-22T07:59:44;10.80;1.40
2174;DHT22;1093;51.424;11.764;2024-03-22T08:02:14;10.90;1.40
2174;DHT22;1093;51.424;11.764;2024-03-22T08:04:40;10.90;1.40
2174;DHT22;1093;51.424;11.764;2024-03-22T08:07:08;11.00;1.40
2174;DHT22;1093;51.424;11.764;2024-03-22T08:09:34;11.00;1.40
2174;DHT22;1093;51.424;11.764;2024-03-22T08:12:01;11.10;1.40
2174;DHT22;1093;51.424;11.764;2024-03-22T08:14:27;11.10;1.40
2174;DHT22;1093;51.424;11.764;2024-03-22T08:16:55;11.20;1.40
2174;DHT22;1093;51.424;11.764;2024-03-22T08:19:21;11.20;1.40
2174;DHT22;1093;51.424;11.764;2024-03-22T08:21:48;11.30;1.40
2174;DHT22;1093;51.424;11.764;2024-03-22T08:24:18;11.30;1.40
2174;DHT22;1093;51.424;11.764;2024-03-22T08:26:46;11.40;1.40
2174;DHT22;1093;51.424;11.764;2024-03-22T08:29:12;11.40;1.40
2174;DHT22;1093;51.424;11.764;2024-03-22T08:31:40;11.40;1.40
2174;DHT22;1093;51.424;11.764;2024-03-22T08:34:07;11.40;1.40
2174;DHT22;1093;51.424;11.764;2024-03-22T08:36:36;11.40;1.40
2174;DHT22;1093;51.424;11.764;2024-03-22T08:39:02;11.40;1.40
2174;DHT22;1093;51.424;11.764;2024-03-22T08:41:32;11.50;1.40
2174;DHT22;1093;51.424;11.764;2024-03-22T08:43:59;11.50;1.40
2174;DHT22;1093;51.424;11.764;2024-03-22T08:46:26;11.50;1.40
2174;DHT22;1093;51.424;11.764;2024-03-22T08:48:56;11.50;1.40
2174;DHT22;1093;51.424;11.764;2024-03-22T08:51:23;11.50;1.40
2174;DHT22;1093;51.424;11.764;2024-03-22T08:53:59;11.50;1.40
2174;DHT22;1093;51.424;11.764;2024-03-22T08:56:35;11.60;1.40
2174;DHT22;1093;51.424;11.764;2024-03-22T08:59:03;11.60;1.40
2174;DHT22;1093;51.424;11.764;2024-03-22T09:01:29;11.60;1.40
2174;DHT22;1093;51.424;11.764;2024-03-22T09:03:56;11.70;1.40
2174;DHT22;1093;51.424;11.764;2024-03-22T09:06:22;11.70;1.40
2174;DHT22;1093;51.424;11.764;2024-03-22T09:08:49;11.80;1.40
2174;DHT22;1093;51.424;11.764;2024-03-22T09:11:14;11.80;1.40
2174;DHT22;1093;51.424;11.764;2024-03-22T09:13:43;11.90;1.40
2174;DHT22;1093;51.424;11.764;2024-03-22T09:16:15;12.00;1.40
2174;DHT22;1093;51.424;11.764;2024-03-22T09:19:07;12.00;1.40
2174;DHT22;1093;51.424;11.764;2024-03-22T09:21:47;12.20;1.40
2174;DHT22;1093;51.424;11.764;2024-03-22T09:24:17;12.20;1.40
2174;DHT22;1093;51.424;11.764;2024-03-22T09:26:43;12.20;1.40
2174;DHT22;1093;51.424;11.764;2024-03-22T09:29:14;12.30;1.40
2174;DHT22;1093;51.424;11.764;2024-03-22T09:31:41;12.50;1.40
2174;DHT22;1093;51.424;11.764;2024-03-22T09:34:07;12.50;1.40
2174;DHT22;1093;51.424;11.764;2024-03-22T09:36:33;12.60;1.40
2174;DHT22;1093;51.424;11.764;2024-03-22T09:39:01;12.60;1.40
2174;DHT22;1093;51.424;11.764;2024-03-22T09:41:27;12.70;1.40
2174;DHT22;1093;51.424;11.764;2024-03-22T09:43:58;12.70;1.40
2174;DHT22;1093;51.424;11.764;2024-03-22T09:46:27;12.70;1.40
2174;DHT22;1093;51.424;11.764;2024-03-22T09:48:57;12.80;1.40
2174;DHT22;1093;51.424;11.764;2024-03-22T09:51:24;12.90;1.40
2174;DHT22;1093;51.424;11.764;2024-03-22T09:53:52;13.00;1.40
2174;DHT22;1093;51.424;11.764;2024-03-22T09:56:20;13.00;1.40
2174;DHT22;1093;51.424;11.764;2024-03-22T09:58:47;13.10;1.40
2174;DHT22;1093;51.424;11.764;2024-03-22T10:01:14;13.20;1.40
2174;DHT22;1093;51.424;11.764;2024-03-22T10:03:44;13.20;1.40
2174;DHT22;1093;51.424;11.764;2024-03-22T10:06:12;13.40;1.40
2174;DHT22;1093;51.424;11.764;2024-03-22T10:08:41;13.50;1.40
2174;DHT22;1093;51.424;11.764;2024-03-22T10:11:09;13.50;1.40
2174;DHT22;1093;51.424;11.764;2024-03-22T10:13:39;13.70;1.40
2174;DHT22;1093;51.424;11.764;2024-03-22T10:16:10;13.70;1.40
2174;DHT22;1093;51.424;11.764;2024-03-22T10:18:42;13.80;1.40
2174;DHT22;1093;51.424;11.764;2024-03-22T10:21:09;13.70;1.40
2174;DHT22;1093;51.424;11.764;2024-03-22T10:23:35;13.80;1.40
2174;DHT22;1093;51.424;11.764;2024-03-22T10:26:01;13.90;1.40
2174;DHT22;1093;51.424;11.764;2024-03-22T10:28:33;13.90;1.40
2174;DHT22;1093;51.424;11.764;2024-03-22T10:31:00;14.00;1.40
2174;DHT22;1093;51.424;11.764;2024-03-22T10:33:28;14.10;1.40
2174;DHT22;1093;51.424;11.764;2024-03-22T10:35:56;14.10;1.40
2174;DHT22;1093;51.424;11.764;2024-03-22T10:38:23;14.20;1.40
2174;DHT22;1093;51.424;11.764;2024-03-22T10:40:49;14.20;1.40
2174;DHT22;1093;51.424;11.764;2024-03-22T10:43:18;14.30;1.40
2174;DHT22;1093;51.424;11.764;2024-03-22T10:45:48;14.40;1.40
2174;DHT22;1093;51.424;11.764;2024-03-22T10:48:17;14.50;1.40
2174;DHT22;1093;51.424;11.764;2024-03-22T10:50:46;14.50;1.40
2174;DHT22;1093;51.424;11.764;2024-03-22T10:53:18;14.50;1.40
2174;DHT22;1093;51.424;11.764;2024-03-22T10:55:52;14.70;1.40
2174;DHT22;1093;51.424;11.764;2024-03-22T10:58:21;14.70;1.40
2174;DHT22;1093;51.424;11.764;2024-03-22T11:00:50;14.70;1.40
2174;DHT22;1093;51.424;11.764;2024-03-22T11:03:21;14.70;1.40
2174;DHT22;1093;51.424;11.764;2024-03-22T11:05:50;14.70;1.40
2174;DHT22;1093;51.424;11.764;2024-03-22T11:08:26;14.80;1.40
2174;DHT22;1093;51.424;11.764;2024-03-22T11:10:52;14.80;1.40
2174;DHT22;1093;51.424;11.764;2024-03-22T11:13:21;14.90;1.40
2174;DHT22;1093;51.424;11.764;2024-03-22T11:15:48;15.10;1.40
2174;DHT22;1093;51.424;11.764;2024-03-22T11:18:18;15.10;1.40
2174;DHT22;1093;51.424;11.764;2024-03-22T11:20:44;15.20;1.40
2174;DHT22;1093;51.424;11.764;2024-03-22T11:23:12;15.20;1.40
2174;DHT22;1093;51.424;11.764;2024-03-22T11:25:45;15.30;1.40
2174;DHT22;1093;51.424;11.764;2024-03-22T11:28:17;15.40;1.40
2174;DHT22;1093;51.424;11.764;2024-03-22T11:30:48;15.50;1.40
2174;DHT22;1093;51.424;11.764;2024-03-22T11:33:16;15.60;1.40
2174;DHT22;1093;51.424;11.764;2024-03-22T11:35:42;15.60;1.40
2174;DHT22;1093;51.424;11.764;2024-03-22T11:38:10;15.60;1.40
2174;DHT22;1093;51.424;11.764;2024-03-22T11:40:36;15.70;1.40
2174;DHT22;1093;51.424;11.764;2024-03-22T11:43:05;15.80;1.40
2174;DHT22;1093;51.424;11.764;2024-03-22T11:45:31;15.80;1.40
2174;DHT22;1093;51.424;11.764;2024-03-22T11:48:08;15.80;1.40
2174;DHT22;1093;51.424;11.764;2024-03-22T11:50:38;15.80;1.40
2174;DHT22;1093;51.424;11.764;2024-03-22T11:53:06;15.90;1.40
2174;DHT22;1093;51.424;11.764;2024-03-22T11:55:45;15.90;1.40
2174;DHT22;1093;51.424;11.764;2024-03-22T11:58:13;16.00;1.40
2174;DHT22;1093;51.424;11.764;2024-03-22T12:00:41;16.00;1.40
2174;DHT22;1093;51.424;11.764;2024-03-22T12:03:11;16.00;1.40
2174;DHT22;1093;51.424;11.764;2024-03-22T12:05:43;16.00;1.40
2174;DHT22;1093;51.424;11.764;2024-03-22T12:08:16;15.90;1.40
2174;DHT22;1093;51.424;11.764;2024-03-22T12:10:51;15.90;1.40
2174;DHT22;1093;51.424;11.764;2024-03-22T12:13:21;16.00;1.40
2174;DHT22;1093;51.424;11.764;2024-03-22T12:15:48;15.90;1.40
2174;DHT22;1093;51.424;11.764;2024-03-22T12:18:15;15.90;1.40
2174;DHT22;1093;51.424;11.764;2024-03-22T12:23:58;15.70;1.40
2174;DHT22;1093;51.424;11.764;2024-03-22T12:26:25;15.70;1.40
2174;DHT22;1093;51.424;11.764;2024-03-22T12:28:57;15.70;1.40
2174;DHT22;1093;51.424;11.764;2024-03-22T12:31:24;15.60;1.40
2174;DHT22;1093;51.424;11.764;2024-03-22T12:33:50;15.60;1.40
2174;DHT22;1093;51.424;11.764;2024-03-22T12:36:17;15.50;1.40
2174;DHT22;1093;51.424;11.764;2024-03-22T12:38:47;15.50;1.40
2174;DHT22;1093;51.424;11.764;2024-03-22T12:41:14;15.50;1.40
2174;DHT22;1093;51.424;11.764;2024-03-22T12:43:43;15.50;1.40
2174;DHT22;1093;51.424;11.764;2024-03-22T12:46:13;15.50;1.40
2174;DHT22;1093;51.424;11.764;2024-03-22T12:48:40;15.50;1.40
2174;DHT22;1093;51.424;11.764;2024-03-22T12:51:09;15.60;1.40
2174;DHT22;1093;51.424;11.764;2024-03-22T12:53:35;15.60;1.40
2174;DHT22;1093;51.424;11.764;2024-03-22T12:56:05;15.60;1.40
2174;DHT22;1093;51.424;11.764;2024-03-22T12:58:37;15.50;1.40
2174;DHT22;1093;51.424;11.764;2024-03-22T13:01:09;15.50;1.40
2174;DHT22;1093;51.424;11.764;2024-03-22T13:03:37;15.40;1.40
2174;DHT22;1093;51.424;11.764;2024-03-22T13:06:05;15.40;1.40
2174;DHT22;1093;51.424;11.764;2024-03-22T13:08:32;15.40;1.40
2174;DHT22;1093;51.424;11.764;2024-03-22T13:11:02;15.40;1.40
2174;DHT22;1093;51.424;11.764;2024-03-22T13:13:28;15.30;1.40
2174;DHT22;1093;51.424;11.764;2024-03-22T13:15:58;15.30;1.40
2174;DHT22;1093;51.424;11.764;2024-03-22T13:18:24;15.30;1.40
2174;DHT22;1093;51.424;11.764;2024-03-22T13:20:55;15.20;1.40
2174;DHT22;1093;51.424;11.764;2024-03-22T13:23:23;15.20;1.40
2174;DHT22;1093;51.424;11.764;2024-03-22T13:25:50;15.20;1.40
2174;DHT22;1093;51.424;11.764;2024-03-22T13:28:17;15.30;1.40
2174;DHT22;1093;51.424;11.764;2024-03-22T13:30:48;15.30;1.40
2174;DHT22;1093;51.424;11.764;2024-03-22T13:33:14;15.20;1.40
2174;DHT22;1093;51.424;11.764;2024-03-22T13:35:44;15.20;1.40
2174;DHT22;1093;51.424;11.764;2024-03-22T13:38:15;15.20;1.40
2174;DHT22;1093;51.424;11.764;2024-03-22T13:40:44;15.10;1.40
2174;DHT22;1093;51.424;11.764;2024-03-22T13:43:17;15.10;1.40
2174;DHT22;1093;51.424;11.764;2024-03-22T13:45:48;15.00;1.40
2174;DHT22;1093;51.424;11.764;2024-03-22T13:48:40;15.00;1.40
2174;DHT22;1093;51.424;11.764;2024-03-22T13:51:15;15.10;1.40
2174;DHT22;1093;51.424;11.764;2024-03-22T13:53:42;15.10;1.40
2174;DHT22;1093;51.424;11.764;2024-03-22T13:56:09;15.10;1.40
2174;DHT22;1093;51.424;11.764;2024-03-22T13:58:35;15.10;1.40
2174;DHT22;1093;51.424;11.764;2024-03-22T14:01:03;15.10;1.40
2174;DHT22;1093;51.424;11.764;2024-03-22T14:03:32;15.10;1.40
2174;DHT22;1093;51.424;11.764;2024-03-22T14:05:58;15.10;1.40
2174;DHT22;1093;51.424;11.764;2024-03-22T14:08:25;15.00;1.40
2174;DHT22;1093;51.424;11.764;2024-03-22T14:10:54;15.00;1.40
2174;DHT22;1093;51.424;11.764;2024-03-22T14:13:20;15.00;1.40
2174;DHT22;1093;51.424;11.764;2024-03-22T14:15:48;15.00;1.40
2174;DHT22;1093;51.424;11.764;2024-03-22T14:18:18;15.00;1.40
2174;DHT22;1093;51.424;11.764;2024-03-22T14:20:45;15.00;1.40
2174;DHT22;1093;51.424;11.764;2024-03-22T14:23:11;15.10;1.40
2174;DHT22;1093;51.424;11.764;2024-03-22T14:25:38;15.00;1.40
2174;DHT22;1093;51.424;11.764;2024-03-22T14:28:06;15.10;1.40
2174;DHT22;1093;51.424;11.764;2024-03-22T14:30:33;15.10;1.40
2174;DHT22;1093;51.424;11.764;2024-03-22T14:32:58;15.00;1.40
2174;DHT22;1093;51.424;11.764;2024-03-22T14:35:25;15.00;1.40
2174;DHT22;1093;51.424;11.764;2024-03-22T14:37:51;15.00;1.40
2174;DHT22;1093;51.424;11.764;2024-03-22T14:40:18;15.00;1.40
2174;DHT22;1093;51.424;11.764;2024-03-22T14:42:44;15.00;1.40
2174;DHT22;1093;51.424;11.764;2024-03-22T14:45:12;15.00;1.40
2174;DHT22;1093;51.424;11.764;2024-03-22T14:47:39;15.00;1.40
2174;DHT22;1093;51.424;11.764;2024-03-22T14:50:06;14.90;1.40
2174;DHT22;1093;51.424;11.764;2024-03-22T14:52:33;14.90;1.40
2174;DHT22;1093;51.424;11.764;2024-03-22T14:54:59;14.90;1.40
2174;DHT22;1093;51.424;11.764;2024-03-22T14:57:25;15.00;1.40
2174;DHT22;1093;51.424;11.764;2024-03-22T14:59:56;15.00;1.40
2174;DHT22;1093;51.424;11.764;2024-03-22T15:02:23;14.90;1.40
2174;DHT22;1093;51.424;11.764;2024-03-22T15:04:50;14.90;1.40
2174;DHT22;1093;51.424;11.764;2024-03-22T15:07:16;15.00;1.40
2174;DHT22;1093;51.424;11.764;2024-03-22T15:09:43;14.90;1.40
2174;DHT22;1093;51.424;11.764;2024-03-22T15:12:09;15.00;1.40
2174;DHT22;1093;51.424;11.764;2024-03-22T15:14:36;14.90;1.40
2174;DHT22;1093;51.424;11.764;2024-03-22T15:17:03;14.90;1.40
2174;DHT22;1093;51.424;11.764;2024-03-22T15:19:31;14.90;1.40
2174;DHT22;1093;51.424;11.764;2024-03-22T15:21:57;14.90;1.40
2174;DHT22;1093;51.424;11.764;2024-03-22T15:24:24;14.80;1.40
2174;DHT22;1093;51.424;11.764;2024-03-22T15:26:50;14.80;1.40
2174;DHT22;1093;51.424;11.764;2024-03-22T15:29:17;14.80;1.40
2174;DHT22;1093;51.424;11.764;2024-03-22T15:31:43;14.80;1.40
2174;DHT22;1093;51.424;11.764;2024-03-22T15:34:10;14.70;1.40
2174;DHT22;1093;51.424;11.764;2024-03-22T15:36:37;14.70;1.40
2174;DHT22;1093;51.424;11.764;2024-03-22T15:39:04;14.70;1.40
2174;DHT22;1093;51.424;11.764;2024-03-22T15:41:30;14.60;1.40
2174;DHT22;1093;51.424;11.764;2024-03-22T15:43:57;14.60;1.40
2174;DHT22;1093;51.424;11.764;2024-03-22T15:46:22;14.50;1.40
2174;DHT22;1093;51.424;11.764;2024-03-22T15:48:49;14.50;1.40
2174;DHT22;1093;51.424;11.764;2024-03-22T15:51:17;14.40;1.40
2174;DHT22;1093;51.424;11.764;2024-03-22T15:53:45;14.40;1.40
2174;DHT22;1093;51.424;11.764;2024-03-22T15:56:11;14.30;1.40
2174;DHT22;1093;51.424;11.764;2024-03-22T15:58:38;14.40;1.40
2174;DHT22;1093;51.424;11.764;2024-03-22T16:01:03;14.40;1.40
2174;DHT22;1093;51.424;11.764;2024-03-22T16:03:31;14.30;1.40
2174;DHT22;1093;51.424;11.764;2024-03-22T16:05:57;14.30;1.40
2174;DHT22;1093;51.424;11.764;2024-03-22T16:08:25;14.20;1.40
2174;DHT22;1093;51.424;11.764;2024-03-22T16:10:56;14.10;1.40
2174;DHT22;1093;51.424;11.764;2024-03-22T16:13:23;14.10;1.40
2174;DHT22;1093;51.424;11.764;2024-03-22T16:15:51;14.10;1.40